createdAt,value
2018-10-05T00:00:45.503Z,84.03
2018-10-05T00:03:13.682Z,84.84
2018-10-05T00:05:41.828Z,84.22
2018-10-05T00:08:09.978Z,84.57
2018-10-05T00:10:38.127Z,84.01
2018-10-05T00:13:06.322Z,84.33
2018-10-05T00:15:34.498Z,85.36
2018-10-05T00:18:02.632Z,84.55
2018-10-05T00:20:30.832Z,85.39
2018-10-05T00:22:58.929Z,84.96
2018-10-05T00:25:27.079Z,85.64
2018-10-05T00:27:55.225Z,86.61
2018-10-05T00:30:23.406Z,87.10
2018-10-05T00:32:51.562Z,86.48
2018-10-05T00:35:19.724Z,87.41
2018-10-05T00:37:49.937Z,88.68
2018-10-05T00:40:18.134Z,88.18
2018-10-05T00:45:36.402Z,88.54
2018-10-05T00:48:04.572Z,88.45
2018-10-05T00:50:32.748Z,88.35
2018-10-05T00:53:01.058Z,88.42
2018-10-05T00:55:29.130Z,89.03
2018-10-05T00:57:57.303Z,89.61
2018-10-05T01:00:25.645Z,90.03
2018-10-05T01:02:53.853Z,89.60
2018-10-05T01:05:22.006Z,89.48
2018-10-05T01:07:50.271Z,90.42
2018-10-05T01:10:18.496Z,89.79
2018-10-05T01:12:46.645Z,89.75
2018-10-05T01:15:14.925Z,90.21
2018-10-05T01:17:43.072Z,88.46
2018-10-05T01:20:11.247Z,88.97
2018-10-05T01:22:39.398Z,87.90
2018-10-05T01:25:07.573Z,88.47
2018-10-05T01:27:35.746Z,88.14
2018-10-05T01:30:03.902Z,88.52
2018-10-05T01:32:32.059Z,87.67
2018-10-05T01:35:00.229Z,87.67
2018-10-05T01:37:28.405Z,87.33
2018-10-05T01:39:56.540Z,86.03
2018-10-05T01:42:24.701Z,87.04
2018-10-05T01:44:52.833Z,86.16
2018-10-05T01:47:20.985Z,86.45
2018-10-05T01:49:49.123Z,86.08
2018-10-05T01:52:17.316Z,86.09
2018-10-05T01:54:45.500Z,86.02
2018-10-05T01:57:13.639Z,86.02
2018-10-05T01:59:41.796Z,85.85
2018-10-05T02:02:09.994Z,85.00
2018-10-05T02:04:38.150Z,85.60
2018-10-05T02:07:06.286Z,84.57
2018-10-05T02:09:34.457Z,87.12
2018-10-05T02:12:02.711Z,85.76
2018-10-05T02:14:30.903Z,85.86
2018-10-05T02:16:59.131Z,85.39
2018-10-05T02:19:27.287Z,85.83
2018-10-05T02:21:55.667Z,85.34
2018-10-05T02:24:23.853Z,86.35
2018-10-05T02:26:52.010Z,85.56
2018-10-05T02:29:20.151Z,85.21
2018-10-05T02:31:48.311Z,84.63
2018-10-05T02:34:16.454Z,85.88
2018-10-05T02:36:44.597Z,86.26
2018-10-05T02:39:13.503Z,85.34
2018-10-05T02:41:42.034Z,85.55
2018-10-05T02:44:10.115Z,85.55
2018-10-05T02:46:38.321Z,86.31
2018-10-05T02:49:06.648Z,85.39
2018-10-05T02:51:34.844Z,85.11
2018-10-05T02:54:02.998Z,84.58
2018-10-05T02:56:31.130Z,84.88
2018-10-05T02:58:59.276Z,85.13
2018-10-05T03:01:38.723Z,84.90
2018-10-05T03:04:06.879Z,84.54
2018-10-05T03:06:35.034Z,85.82
2018-10-05T03:09:03.414Z,86.13
2018-10-05T03:11:31.588Z,85.56
2018-10-05T03:13:59.739Z,86.02
2018-10-05T03:16:27.914Z,85.16
2018-10-05T03:18:56.092Z,84.28
2018-10-05T03:21:24.335Z,85.23
2018-10-05T03:23:52.478Z,85.53
2018-10-05T03:26:20.636Z,85.96
2018-10-05T03:28:48.780Z,85.82
2018-10-05T03:31:16.939Z,85.98
2018-10-05T03:33:45.099Z,86.64
2018-10-05T03:36:13.368Z,87.07
2018-10-05T03:38:41.516Z,87.32
2018-10-05T03:41:09.672Z,89.04
2018-10-05T03:43:37.802Z,89.54
2018-10-05T03:46:06.032Z,89.76
2018-10-05T03:48:34.199Z,88.77
2018-10-05T03:51:02.391Z,88.85
2018-10-05T03:53:30.566Z,89.43
2018-10-05T03:55:58.736Z,89.93
2018-10-05T03:58:26.909Z,88.52
2018-10-05T04:00:55.051Z,88.41
2018-10-05T04:03:23.320Z,89.06
2018-10-05T04:05:51.482Z,88.33
2018-10-05T04:08:19.634Z,89.85
2018-10-05T04:10:47.807Z,88.53
2018-10-05T04:13:15.952Z,89.32
2018-10-05T04:15:44.128Z,88.53
2018-10-05T04:18:12.299Z,88.76
2018-10-05T04:20:40.474Z,89.37
2018-10-05T04:23:08.626Z,88.06
2018-10-05T04:25:36.773Z,89.02
2018-10-05T04:28:04.925Z,89.20
2018-10-05T04:30:33.061Z,88.72
2018-10-05T04:33:01.331Z,88.45
2018-10-05T04:35:29.521Z,89.84
2018-10-05T04:37:57.679Z,89.25
2018-10-05T04:40:25.823Z,90.41
2018-10-05T04:42:53.992Z,89.25
2018-10-05T04:45:22.166Z,89.14
2018-10-05T04:47:50.327Z,88.84
2018-10-05T04:50:18.497Z,89.31
2018-10-05T04:52:46.634Z,89.97
2018-10-05T04:55:14.789Z,90.95
2018-10-05T04:57:42.935Z,90.31
2018-10-05T05:00:11.092Z,91.80
2018-10-05T05:02:39.343Z,91.83
2018-10-05T05:05:07.491Z,91.71
2018-10-05T05:07:35.656Z,91.66
2018-10-05T05:10:04.036Z,91.76
2018-10-05T05:12:32.183Z,92.35
2018-10-05T05:15:00.348Z,91.76
2018-10-05T05:17:28.506Z,90.79
2018-10-05T05:19:56.662Z,90.48
2018-10-05T05:22:24.810Z,89.79
2018-10-05T05:24:52.973Z,92.59
2018-10-05T05:27:21.132Z,90.91
2018-10-05T05:29:49.266Z,92.04
2018-10-05T05:32:17.434Z,90.66
2018-10-05T05:34:45.606Z,90.57
2018-10-05T05:37:13.777Z,90.33
2018-10-05T05:39:41.975Z,91.22
2018-10-05T05:42:10.091Z,91.65
2018-10-05T05:44:38.289Z,91.04
2018-10-05T05:47:06.703Z,90.18
2018-10-05T05:49:34.838Z,89.36
2018-10-05T05:52:03.024Z,89.75
2018-10-05T05:54:31.228Z,90.41
2018-10-05T05:56:59.308Z,90.21
2018-10-05T05:59:27.656Z,89.43
2018-10-05T06:01:55.797Z,88.90
2018-10-05T06:04:23.943Z,88.61
2018-10-05T06:06:52.094Z,88.36
2018-10-05T06:09:20.295Z,88.58
2018-10-05T06:11:48.466Z,89.13
2018-10-05T06:14:16.620Z,88.68
2018-10-05T06:16:44.779Z,89.05
2018-10-05T06:19:12.911Z,87.90
2018-10-05T06:21:41.168Z,87.92
2018-10-05T06:24:09.247Z,87.08
2018-10-05T06:26:37.416Z,86.96
2018-10-05T06:29:05.595Z,87.31
2018-10-05T06:31:33.757Z,86.78
2018-10-05T06:34:01.933Z,87.06
2018-10-05T06:36:30.103Z,86.88
2018-10-05T06:38:58.352Z,85.69
2018-10-05T06:41:26.455Z,86.25
2018-10-05T06:43:54.608Z,86.18
2018-10-05T06:46:22.815Z,86.97
2018-10-05T06:48:51.006Z,86.20
2018-10-05T06:51:19.210Z,84.90
2018-10-05T06:53:47.370Z,84.39
2018-10-05T06:56:15.526Z,84.30
2018-10-05T06:58:43.840Z,83.46
2018-10-05T07:01:11.989Z,81.41
2018-10-05T07:03:40.151Z,79.94
2018-10-05T07:06:08.374Z,79.58
2018-10-05T07:08:36.539Z,78.41
2018-10-05T07:11:04.674Z,78.25
2018-10-05T07:13:32.852Z,77.52
2018-10-05T07:16:01.003Z,76.26
2018-10-05T07:18:29.187Z,74.00
2018-10-05T07:20:57.341Z,74.78
2018-10-05T07:23:25.510Z,73.35
2018-10-05T07:25:53.666Z,71.79
2018-10-05T07:28:21.891Z,70.57
2018-10-05T07:30:49.968Z,70.23
2018-10-05T07:33:18.131Z,68.42
2018-10-05T07:35:46.309Z,67.44
2018-10-05T07:38:14.460Z,65.81
2018-10-05T07:40:42.627Z,64.33
2018-10-05T07:43:10.788Z,63.65
2018-10-05T07:45:38.936Z,62.89
2018-10-05T07:48:07.126Z,63.19
2018-10-05T07:50:35.308Z,58.99
2018-10-05T07:53:03.482Z,59.68
2018-10-05T07:55:31.649Z,57.43
2018-10-05T07:57:59.920Z,59.63
2018-10-05T08:00:27.979Z,59.22
2018-10-05T08:02:56.191Z,58.91
2018-10-05T08:05:24.401Z,60.04
2018-10-05T08:07:52.522Z,58.30
2018-10-05T08:10:20.682Z,60.20
2018-10-05T08:12:48.850Z,57.60
2018-10-05T08:15:17.004Z,60.17
2018-10-05T08:17:45.166Z,61.09
2018-10-05T08:20:13.329Z,61.76
2018-10-05T08:22:41.480Z,58.61
2018-10-05T08:25:09.639Z,60.64
2018-10-05T08:27:37.854Z,61.36
2018-10-05T08:30:06.705Z,60.52
2018-10-05T08:32:34.883Z,59.46
2018-10-05T08:35:03.090Z,59.29
2018-10-05T08:37:31.255Z,59.64
2018-10-05T08:39:59.488Z,59.48
2018-10-05T08:42:27.578Z,60.24
2018-10-05T08:44:55.751Z,59.11
2018-10-05T08:47:23.940Z,60.29
2018-10-05T08:49:52.131Z,61.64
2018-10-05T08:52:20.334Z,62.77
2018-10-05T08:54:48.450Z,62.22
2018-10-05T08:57:17.700Z,61.87
2018-10-05T08:59:45.848Z,61.14
2018-10-05T09:02:14.006Z,62.13
2018-10-05T09:04:42.169Z,61.48
2018-10-05T09:07:10.354Z,60.48
2018-10-05T09:09:38.529Z,61.15
2018-10-05T09:12:06.727Z,59.68
2018-10-05T09:14:34.881Z,59.79
2018-10-05T09:17:03.045Z,59.47
2018-10-05T09:19:31.273Z,58.84
2018-10-05T09:21:59.437Z,58.72
2018-10-05T09:24:27.616Z,58.15
2018-10-05T09:26:55.754Z,57.48
2018-10-05T09:29:23.947Z,57.15
2018-10-05T09:31:52.098Z,57.65
2018-10-05T09:34:20.287Z,58.17
2018-10-05T09:36:48.443Z,58.16
2018-10-05T09:39:16.636Z,56.86
2018-10-05T09:41:44.816Z,56.83
2018-10-05T09:44:13.105Z,56.48
2018-10-05T09:46:41.414Z,55.88
2018-10-05T09:49:09.594Z,55.81
2018-10-05T09:51:37.808Z,57.00
2018-10-05T09:54:05.975Z,55.57
2018-10-05T09:56:34.150Z,55.87
2018-10-05T09:59:02.320Z,55.64
2018-10-05T10:01:35.799Z,55.53
2018-10-05T10:04:04.000Z,55.41
2018-10-05T10:06:32.405Z,54.49
2018-10-05T10:09:00.580Z,53.90
2018-10-05T10:11:28.760Z,54.91
2018-10-05T10:13:57.032Z,53.78
2018-10-05T10:16:25.163Z,54.41
2018-10-05T10:18:53.355Z,53.38
2018-10-05T10:21:21.574Z,53.40
2018-10-05T10:23:49.747Z,53.61
2018-10-05T10:26:17.907Z,53.94
2018-10-05T10:28:46.166Z,53.59
2018-10-05T10:31:14.259Z,54.24
2018-10-05T10:33:42.510Z,53.68
2018-10-05T10:36:10.634Z,53.49
2018-10-05T10:38:38.826Z,52.82
2018-10-05T10:41:07.051Z,53.18
2018-10-05T10:43:35.207Z,52.35
2018-10-05T10:46:03.397Z,52.08
2018-10-05T10:48:31.554Z,52.86
2018-10-05T10:50:59.747Z,52.23
2018-10-05T10:53:27.902Z,51.40
2018-10-05T10:55:56.074Z,50.90
2018-10-05T10:58:24.307Z,50.98
2018-10-05T11:00:52.532Z,50.71
2018-10-05T11:03:20.655Z,52.79
2018-10-05T11:05:48.821Z,52.01
2018-10-05T11:08:17.021Z,51.51
2018-10-05T11:10:45.187Z,50.84
2018-10-05T11:13:13.339Z,51.19
2018-10-05T11:15:41.500Z,49.97
2018-10-05T11:18:09.656Z,51.02
2018-10-05T11:20:37.849Z,50.33
2018-10-05T11:23:06.248Z,50.29
2018-10-05T11:25:34.358Z,50.67
2018-10-05T11:28:02.576Z,50.43
2018-10-05T11:30:30.753Z,48.95
2018-10-05T11:32:59.100Z,50.00
2018-10-05T11:35:27.255Z,48.79
2018-10-05T11:37:55.459Z,49.27
2018-10-05T11:40:23.664Z,48.24
2018-10-05T11:42:51.817Z,49.10
2018-10-05T11:45:19.970Z,48.92
2018-10-05T11:47:48.145Z,48.09
2018-10-05T11:50:16.284Z,46.92
2018-10-05T11:52:44.449Z,48.34
2018-10-05T11:55:12.681Z,46.95
2018-10-05T11:57:40.871Z,46.20
2018-10-05T12:00:11.162Z,46.43
2018-10-05T12:02:39.392Z,46.84
2018-10-05T12:05:07.584Z,45.40
2018-10-05T12:07:35.716Z,46.33
2018-10-05T12:10:03.984Z,46.09
2018-10-05T12:12:32.147Z,45.76
2018-10-05T12:15:00.316Z,45.32
2018-10-05T12:17:28.501Z,45.55
2018-10-05T12:19:56.712Z,44.03
2018-10-05T12:22:24.943Z,45.24
2018-10-05T12:24:53.111Z,44.77
2018-10-05T12:27:21.357Z,43.87
2018-10-05T12:29:51.570Z,44.49
2018-10-05T12:32:19.748Z,44.63
2018-10-05T12:34:48.003Z,44.00
2018-10-05T12:37:16.334Z,43.63
2018-10-05T12:39:44.441Z,44.42
2018-10-05T12:42:12.623Z,44.81
2018-10-05T12:44:40.840Z,44.07
2018-10-05T12:47:09.091Z,44.63
2018-10-05T12:49:37.275Z,44.35
2018-10-05T12:52:05.474Z,43.64
2018-10-05T12:54:33.635Z,43.93
2018-10-05T12:57:02.387Z,43.38
2018-10-05T12:59:30.592Z,42.59
2018-10-05T13:01:58.755Z,42.53
2018-10-05T13:04:26.978Z,42.48
2018-10-05T13:06:55.143Z,42.05
2018-10-05T13:09:23.384Z,43.36
2018-10-05T13:11:51.526Z,43.27
2018-10-05T13:14:19.680Z,43.26
2018-10-05T13:16:47.839Z,43.27
2018-10-05T13:19:15.995Z,43.18
2018-10-05T13:21:44.221Z,42.19
2018-10-05T13:24:12.379Z,42.15
2018-10-05T13:26:40.590Z,42.96
2018-10-05T13:29:08.774Z,41.82
2018-10-05T13:31:36.951Z,42.56
2018-10-05T13:34:05.190Z,42.21
2018-10-05T13:36:33.276Z,42.34
2018-10-05T13:39:01.446Z,41.36
2018-10-05T13:41:29.588Z,40.96
2018-10-05T13:43:57.769Z,41.36
2018-10-05T13:46:25.950Z,41.76
2018-10-05T13:48:54.130Z,42.68
2018-10-05T13:51:22.297Z,42.58
2018-10-05T13:53:50.448Z,42.62
2018-10-05T13:56:18.628Z,41.08
2018-10-05T13:58:47.383Z,41.84
2018-10-05T14:01:16.169Z,40.80
2018-10-05T14:03:44.360Z,42.08
2018-10-05T14:06:12.591Z,41.33
2018-10-05T14:08:40.708Z,42.23
2018-10-05T14:11:08.896Z,41.45
2018-10-05T14:13:37.047Z,42.19
2018-10-05T14:16:05.249Z,41.66
2018-10-05T14:18:33.436Z,42.16
2018-10-05T14:21:01.597Z,42.01
2018-10-05T14:23:29.824Z,41.56
2018-10-05T14:25:57.986Z,41.56
2018-10-05T14:28:26.202Z,42.45
2018-10-05T14:30:54.355Z,41.70
2018-10-05T14:33:23.592Z,42.16
2018-10-05T14:35:51.716Z,42.17
2018-10-05T14:38:19.862Z,42.63
2018-10-05T14:40:47.994Z,42.19
2018-10-05T14:43:16.219Z,41.75
2018-10-05T14:45:44.468Z,42.09
2018-10-05T14:48:12.633Z,41.26
2018-10-05T14:50:40.865Z,41.53
2018-10-05T14:53:09.075Z,41.45
2018-10-05T14:55:37.276Z,41.86
2018-10-05T14:58:06.017Z,42.32
2018-10-05T15:00:35.063Z,42.61
2018-10-05T15:03:03.211Z,43.17
2018-10-05T15:05:31.551Z,42.45
2018-10-05T15:07:59.738Z,43.13
2018-10-05T15:10:27.859Z,43.34
2018-10-05T15:12:56.106Z,43.10
2018-10-05T15:15:24.235Z,42.77
2018-10-05T15:17:52.499Z,43.83
2018-10-05T15:20:20.647Z,43.84
2018-10-05T15:22:48.852Z,43.97
2018-10-05T15:25:17.072Z,43.89
2018-10-05T15:27:45.198Z,43.52
2018-10-05T15:30:13.467Z,43.78
2018-10-05T15:32:41.702Z,44.62
2018-10-05T15:35:09.799Z,43.79
2018-10-05T15:37:37.942Z,45.20
2018-10-05T15:40:06.213Z,45.40
2018-10-05T15:42:34.359Z,46.02
2018-10-05T15:45:02.541Z,45.43
2018-10-05T15:47:30.714Z,46.12
2018-10-05T15:49:58.914Z,46.61
2018-10-05T15:52:27.132Z,46.04
2018-10-05T15:54:55.322Z,46.05
2018-10-05T15:57:23.491Z,46.66
2018-10-05T15:59:51.651Z,46.71
2018-10-05T16:02:19.833Z,46.44
2018-10-05T16:04:48.019Z,47.54
2018-10-05T16:07:16.239Z,46.55
2018-10-05T16:09:44.482Z,46.90
2018-10-05T16:12:12.703Z,47.64
2018-10-05T16:14:40.807Z,47.69
2018-10-05T16:17:08.921Z,47.73
2018-10-05T16:19:37.046Z,47.60
2018-10-05T16:22:05.202Z,48.64
2018-10-05T16:24:42.931Z,48.27
2018-10-05T16:27:11.727Z,49.25
2018-10-05T16:29:39.927Z,48.99
2018-10-05T16:32:09.109Z,48.88
2018-10-05T16:34:37.273Z,49.00
2018-10-05T16:37:05.766Z,48.22
2018-10-05T16:39:34.183Z,48.68
2018-10-05T16:42:02.398Z,48.27
2018-10-05T16:44:30.735Z,49.82
2018-10-05T16:46:58.959Z,49.54
2018-10-05T16:49:27.157Z,49.97
2018-10-05T16:51:55.350Z,50.42
2018-10-05T16:54:23.524Z,49.94
2018-10-05T16:56:51.664Z,51.75
2018-10-05T16:59:19.846Z,52.35
2018-10-05T17:01:48.000Z,52.28
2018-10-05T17:04:16.216Z,52.51
2018-10-05T17:06:48.000Z,52.28
2018-10-05T17:09:16.299Z,53.66
2018-10-05T17:11:45.534Z,53.41
2018-10-05T17:14:13.765Z,53.69
2018-10-05T17:16:41.957Z,54.40
2018-10-05T17:19:10.153Z,55.09
2018-10-05T17:21:38.331Z,55.39
2018-10-05T17:24:07.553Z,56.37
2018-10-05T17:26:35.756Z,55.90
2018-10-05T17:29:03.919Z,56.06
2018-10-05T17:31:32.082Z,56.94
2018-10-05T17:34:00.225Z,56.69
2018-10-05T17:36:28.383Z,57.04
2018-10-05T17:38:56.552Z,57.03
2018-10-05T17:41:24.723Z,56.49
2018-10-05T17:43:52.887Z,57.90
2018-10-05T17:46:21.105Z,57.53
2018-10-05T17:48:49.269Z,57.54
2018-10-05T17:51:17.479Z,57.43
2018-10-05T17:53:45.651Z,58.18
2018-10-05T17:56:13.880Z,58.55
2018-10-05T17:58:42.008Z,58.65
2018-10-05T18:01:10.219Z,58.89
2018-10-05T18:03:38.376Z,58.72
2018-10-05T18:06:06.560Z,59.59
2018-10-05T18:08:34.741Z,58.80
2018-10-05T18:11:02.974Z,60.31
2018-10-05T18:13:31.210Z,60.19
2018-10-05T18:15:59.374Z,61.20
2018-10-05T18:18:27.531Z,61.70
2018-10-05T18:20:55.732Z,61.24
2018-10-05T18:23:24.003Z,62.41
2018-10-05T18:25:52.254Z,62.29
2018-10-05T18:28:20.440Z,62.45
2018-10-05T18:30:48.646Z,62.66
2018-10-05T18:33:16.816Z,63.20
2018-10-05T18:35:45.011Z,62.71
2018-10-05T18:38:13.224Z,63.42
2018-10-05T18:40:41.424Z,63.35
2018-10-05T18:43:09.578Z,64.12
2018-10-05T18:45:37.779Z,63.15
2018-10-05T18:48:05.973Z,63.68
2018-10-05T18:50:34.149Z,64.27
2018-10-05T18:53:02.315Z,63.89
2018-10-05T18:55:30.498Z,64.75
2018-10-05T18:57:58.771Z,64.39
2018-10-05T19:00:27.020Z,64.91
2018-10-05T19:02:55.334Z,65.13
2018-10-05T19:05:23.494Z,66.18
2018-10-05T19:07:51.721Z,66.20
2018-10-05T19:10:19.907Z,65.74
2018-10-05T19:12:48.091Z,66.50
2018-10-05T19:15:16.310Z,66.75
2018-10-05T19:17:44.482Z,66.63
2018-10-05T19:20:12.652Z,68.12
2018-10-05T19:22:40.881Z,67.36
2018-10-05T19:25:09.116Z,67.73
2018-10-05T19:27:37.287Z,67.11
2018-10-05T19:30:05.699Z,68.43
2018-10-05T19:32:33.854Z,68.16
2018-10-05T19:35:02.063Z,68.04
2018-10-05T19:37:30.236Z,67.87
2018-10-05T19:39:58.434Z,67.78
2018-10-05T19:42:26.627Z,67.50
2018-10-05T19:44:54.822Z,67.80
2018-10-05T19:47:23.031Z,68.26
2018-10-05T19:49:51.219Z,67.86
2018-10-05T19:52:19.422Z,68.58
2018-10-05T19:54:47.606Z,68.80
2018-10-05T19:57:15.799Z,68.35
2018-10-05T19:59:43.969Z,68.31
2018-10-05T20:02:13.210Z,69.27
2018-10-05T20:04:41.388Z,68.40
2018-10-05T20:07:09.762Z,68.22
2018-10-05T20:09:37.943Z,69.08
2018-10-05T20:12:06.206Z,69.12
2018-10-05T20:14:34.462Z,69.17
2018-10-05T20:17:02.758Z,69.93
2018-10-05T20:19:31.329Z,69.73
2018-10-05T20:21:59.511Z,69.20
2018-10-05T20:24:27.733Z,70.05
2018-10-05T20:26:55.860Z,69.61
2018-10-05T20:29:24.028Z,71.02
2018-10-05T20:31:52.193Z,71.06
2018-10-05T20:34:20.350Z,70.14
2018-10-05T20:36:50.123Z,71.64
2018-10-05T20:39:18.129Z,70.50
2018-10-05T20:41:46.306Z,70.84
2018-10-05T20:44:14.491Z,71.34
2018-10-05T20:46:43.510Z,71.15
2018-10-05T20:49:11.752Z,71.62
2018-10-05T20:51:39.956Z,71.91
2018-10-05T20:54:08.106Z,72.22
2018-10-05T20:56:36.281Z,72.63
2018-10-05T20:59:04.465Z,74.13
2018-10-05T21:01:32.598Z,74.29
2018-10-05T21:04:00.773Z,74.18
2018-10-05T21:06:28.947Z,74.31
2018-10-05T21:08:57.123Z,73.44
2018-10-05T21:11:25.449Z,74.11
2018-10-05T21:13:55.551Z,73.97
2018-10-05T21:16:23.744Z,73.44
2018-10-05T21:18:52.940Z,73.30
2018-10-05T21:21:21.095Z,74.05
2018-10-05T21:23:49.267Z,74.60
2018-10-05T21:26:17.434Z,74.31
2018-10-05T21:28:45.643Z,74.25
2018-10-05T21:31:13.821Z,73.99
2018-10-05T21:33:45.738Z,74.25
2018-10-05T21:36:15.964Z,74.90
2018-10-05T21:38:44.167Z,75.19
2018-10-05T21:41:12.352Z,75.39
2018-10-05T21:43:40.518Z,74.40
2018-10-05T21:46:08.726Z,76.01
2018-10-05T21:48:36.911Z,75.85
2018-10-05T21:51:07.146Z,75.97
2018-10-05T21:53:35.580Z,75.88
2018-10-05T21:56:03.809Z,76.58
2018-10-05T21:58:31.978Z,76.60
2018-10-05T22:01:01.379Z,76.65
2018-10-05T22:03:30.682Z,76.98
2018-10-05T22:06:00.222Z,76.87
2018-10-05T22:08:28.366Z,77.00
2018-10-05T22:10:57.344Z,77.19
2018-10-05T22:13:25.584Z,76.97
2018-10-05T22:15:53.751Z,78.25
2018-10-05T22:18:22.022Z,77.67
2018-10-05T22:20:50.172Z,78.66
2018-10-05T22:23:18.418Z,77.54
2018-10-05T22:25:46.631Z,77.84
2018-10-05T22:28:14.800Z,78.21
2018-10-05T22:30:42.955Z,77.77
2018-10-05T22:33:11.165Z,78.09
2018-10-05T22:35:39.345Z,78.04
2018-10-05T22:38:07.717Z,77.45
2018-10-05T22:40:35.879Z,77.73
2018-10-05T22:43:04.050Z,78.02
2018-10-05T22:45:32.238Z,78.67
2018-10-05T22:48:00.409Z,78.73
2018-10-05T22:50:28.583Z,78.25
2018-10-05T22:52:56.794Z,78.30
2018-10-05T22:55:24.983Z,79.55
2018-10-05T22:57:53.156Z,78.86
2018-10-05T23:00:21.357Z,79.32
2018-10-05T23:02:49.536Z,79.94
2018-10-05T23:05:17.709Z,78.58
2018-10-05T23:07:45.899Z,79.85
2018-10-05T23:10:14.067Z,79.70
2018-10-05T23:12:42.245Z,79.85
2018-10-05T23:15:10.428Z,79.44
2018-10-05T23:17:38.589Z,79.58
2018-10-05T23:20:06.788Z,80.16
2018-10-05T23:22:34.949Z,80.03
2018-10-05T23:25:03.106Z,79.67
2018-10-05T23:27:31.265Z,79.46
2018-10-05T23:29:59.463Z,79.79
2018-10-05T23:32:27.639Z,79.36
2018-10-05T23:34:55.868Z,80.05
2018-10-05T23:40:15.453Z,80.50
2018-10-05T23:42:43.677Z,80.36
2018-10-05T23:45:11.926Z,81.23
2018-10-05T23:47:40.160Z,80.77
2018-10-05T23:50:08.406Z,80.86
2018-10-05T23:52:41.710Z,82.72
2018-10-05T23:55:09.951Z,81.83
2018-10-05T23:57:38.782Z,82.14
